Time;durP1;ratioP1;P1;durP2;ratioP2;P2;SDS_P1;SDS_P2;PMS_P1;PMS_P2;Temp;Humidity;BMP_temperature;BMP_pressure;BME280_temperature;BME280_humidity;BME280_pressure;Samples;Min_cycle;Max_cycle;Signal;HPM_P1;HPM_P2
2024/01/10 00:02:23;;;;;;;18.80;11.77;;;-2.30;99.90;;;;;;4931295;28;20110;-61
2024/01/10 00:04:48;;;;;;;20.13;12.83;;;-2.40;99.90;;;;;;4932762;28;20035;-60
2024/01/10 00:07:14;;;;;;;18.73;12.37;;;-2.30;99.90;;;;;;4934870;28;20049;-60
2024/01/10 00:09:40;;;;;;;19.43;12.30;;;-2.40;99.90;;;;;;4926775;28;20043;-61
2024/01/10 00:12:06;;;;;;;18.03;12.20;;;-2.40;99.90;;;;;;4924545;28;20197;-61
2024/01/10 00:14:31;;;;;;;18.10;12.87;;;-2.40;99.90;;;;;;4930650;28;20036;-61
2024/01/10 00:16:57;;;;;;;19.47;12.57;;;-2.40;99.90;;;;;;4929812;28;20076;-60
2024/01/10 00:19:23;;;;;;;18.60;11.80;;;-2.40;99.90;;;;;;4915979;28;20066;-61
2024/01/10 00:21:48;;;;;;;18.57;12.93;;;-2.40;99.90;;;;;;4931222;28;20039;-60
2024/01/10 00:24:14;;;;;;;18.43;11.77;;;-2.40;99.90;;;;;;5011887;28;20251;-59
2024/01/10 00:26:40;;;;;;;20.03;11.80;;;-2.50;99.90;;;;;;4925819;28;20042;-58
2024/01/10 00:29:05;;;;;;;21.20;13.47;;;-2.50;99.90;;;;;;4927468;28;20050;-58
2024/01/10 00:31:31;;;;;;;20.47;12.87;;;-2.50;99.90;;;;;;4936715;28;20050;-60
2024/01/10 00:33:57;;;;;;;22.07;13.03;;;-2.50;99.90;;;;;;4925738;28;20078;-59
2024/01/10 00:36:23;;;;;;;21.63;13.77;;;-2.50;99.90;;;;;;4934323;28;21002;-60
2024/01/10 00:38:48;;;;;;;21.57;14.30;;;-2.50;99.90;;;;;;4950221;28;20124;-60
2024/01/10 00:41:14;;;;;;;22.70;13.97;;;-2.50;99.90;;;;;;4915892;28;20426;-59
2024/01/10 00:43:43;;;;;;;23.07;14.60;;;-2.60;99.90;;;;;;4910400;28;20059;-60
2024/01/10 00:46:08;;;;;;;21.87;14.43;;;-2.60;99.90;;;;;;4927409;28;20035;-60
2024/01/10 00:48:34;;;;;;;23.63;15.37;;;-2.60;99.90;;;;;;4929152;28;20124;-59
2024/01/10 00:51:00;;;;;;;23.70;15.17;;;-2.60;99.90;;;;;;4935398;28;20031;-59
2024/01/10 00:53:26;;;;;;;22.70;14.47;;;-2.60;99.90;;;;;;4925384;28;20150;-60
2024/01/10 00:55:51;;;;;;;24.60;14.97;;;-2.60;99.90;;;;;;4932278;28;20057;-60
2024/01/10 00:58:17;;;;;;;26.70;17.50;;;-2.60;99.90;;;;;;4927990;28;20406;-60
2024/01/10 01:00:43;;;;;;;23.57;14.73;;;-2.60;99.90;;;;;;4931100;28;20046;-59
2024/01/10 01:03:08;;;;;;;24.93;17.17;;;-2.60;99.90;;;;;;4934068;28;20054;-60
2024/01/10 01:05:34;;;;;;;24.90;15.77;;;-2.60;99.90;;;;;;4925914;28;20506;-61
2024/01/10 01:08:00;;;;;;;26.00;16.80;;;-2.60;99.90;;;;;;4992642;28;20126;-60
2024/01/10 01:10:25;;;;;;;22.20;15.33;;;-2.60;99.90;;;;;;4996114;28;20047;-60
2024/01/10 01:12:51;;;;;;;28.40;18.57;;;-2.60;99.90;;;;;;4927207;28;20043;-60
2024/01/10 01:15:17;;;;;;;26.97;16.63;;;-2.50;99.90;;;;;;4928509;28;20039;-60
2024/01/10 01:17:42;;;;;;;25.07;16.83;;;-2.50;99.90;;;;;;4930511;28;20320;-58
2024/01/10 01:20:09;;;;;;;26.70;17.33;;;-2.50;99.90;;;;;;4929561;28;20038;-58
2024/01/10 01:22:35;;;;;;;27.50;17.77;;;-2.50;99.90;;;;;;4928884;28;20047;-58
2024/01/10 01:25:00;;;;;;;27.20;17.70;;;-2.50;99.90;;;;;;4931184;28;20050;-58
2024/01/10 01:27:26;;;;;;;28.60;18.70;;;-2.50;99.90;;;;;;4959011;28;20145;-60
2024/01/10 01:29:52;;;;;;;26.97;17.23;;;-2.50;99.90;;;;;;4945052;28;20418;-60
2024/01/10 01:32:17;;;;;;;27.30;17.27;;;-2.50;99.90;;;;;;4928362;28;20063;-60
2024/01/10 01:34:43;;;;;;;27.20;17.50;;;-2.50;99.90;;;;;;4931383;28;20354;-59
2024/01/10 01:37:09;;;;;;;28.63;17.10;;;-2.50;99.90;;;;;;4929355;28;20078;-60
2024/01/10 01:39:35;;;;;;;25.33;16.33;;;-2.50;99.90;;;;;;4931973;28;20047;-61
2024/01/10 01:42:00;;;;;;;25.73;17.10;;;-2.50;99.90;;;;;;4925155;28;20050;-60
2024/01/10 01:44:32;;;;;;;27.10;16.80;;;-2.50;99.90;;;;;;4930746;28;20414;-59
2024/01/10 01:46:58;;;;;;;29.83;17.17;;;-2.50;99.90;;;;;;4929326;28;20047;-61
2024/01/10 01:49:25;;;;;;;24.97;16.40;;;-2.50;99.90;;;;;;4930021;28;20054;-60
2024/01/10 01:51:52;;;;;;;28.73;17.33;;;-2.50;99.90;;;;;;4947893;28;20165;-60
2024/01/10 01:54:19;;;;;;;26.20;16.50;;;-2.40;99.90;;;;;;4993710;28;20049;-61
2024/01/10 01:56:46;;;;;;;27.93;18.17;;;-2.40;99.90;;;;;;4929695;28;20786;-61
2024/01/10 01:59:12;;;;;;;26.30;16.53;;;-2.40;99.90;;;;;;4945360;28;20040;-59
2024/01/10 02:01:41;;;;;;;27.30;17.73;;;-2.40;99.90;;;;;;4929754;28;20494;-60
2024/01/10 02:04:07;;;;;;;27.53;16.77;;;-2.40;99.90;;;;;;4940606;28;20129;-59
2024/01/10 02:06:32;;;;;;;27.97;17.60;;;-2.40;99.90;;;;;;4927861;28;20047;-61
2024/01/10 02:08:59;;;;;;;29.40;17.23;;;-2.40;99.90;;;;;;4932471;28;20034;-58
2024/01/10 02:11:28;;;;;;;30.00;18.43;;;-2.40;99.90;;;;;;4932163;29;20109;-59
2024/01/10 02:13:54;;;;;;;28.40;18.70;;;-2.40;99.90;;;;;;4909991;28;20097;-60
2024/01/10 02:16:21;;;;;;;29.43;18.97;;;-2.40;99.90;;;;;;4942131;28;20083;-61
2024/01/10 02:18:46;;;;;;;28.20;17.83;;;-2.40;99.90;;;;;;4941395;28;20035;-60
2024/01/10 02:21:12;;;;;;;31.40;19.90;;;-2.40;99.90;;;;;;4926286;28;20494;-60
2024/01/10 02:23:40;;;;;;;30.13;18.93;;;-2.50;99.90;;;;;;4935968;28;20042;-60
2024/01/10 02:26:06;;;;;;;29.50;18.17;;;-2.50;99.90;;;;;;4935849;28;20051;-61
2024/01/10 02:28:32;;;;;;;32.03;19.50;;;-2.40;99.90;;;;;;4952118;28;20127;-60
2024/01/10 02:31:01;;;;;;;28.43;18.60;;;-2.50;99.90;;;;;;4932554;28;20052;-59
2024/01/10 02:33:31;;;;;;;29.33;19.63;;;-2.50;99.90;;;;;;4928864;28;20158;-59
2024/01/10 02:35:57;;;;;;;35.80;20.47;;;-2.50;99.90;;;;;;4930842;28;20035;-61
2024/01/10 02:38:23;;;;;;;31.93;20.33;;;-2.50;99.90;;;;;;4936178;28;20043;-60
2024/01/10 02:40:49;;;;;;;32.67;21.50;;;-2.50;99.90;;;;;;4928913;28;20043;-60
2024/01/10 02:43:15;;;;;;;35.13;21.50;;;-2.50;99.90;;;;;;4928901;28;20047;-59
2024/01/10 02:45:41;;;;;;;29.93;19.80;;;-2.50;99.90;;;;;;4944603;28;20046;-60
2024/01/10 02:48:07;;;;;;;28.77;19.83;;;-2.50;99.90;;;;;;4996470;28;20043;-61
2024/01/10 02:50:33;;;;;;;31.07;20.00;;;-2.60;99.90;;;;;;4947233;28;20081;-58
2024/01/10 02:52:59;;;;;;;28.50;18.80;;;-2.50;99.90;;;;;;4912229;28;20069;-60
2024/01/10 02:55:24;;;;;;;30.43;19.60;;;-2.50;99.90;;;;;;4923261;28;20043;-58
2024/01/10 02:57:50;;;;;;;30.63;19.40;;;-2.60;99.90;;;;;;4927163;28;20469;-60
2024/01/10 03:00:17;;;;;;;30.50;19.23;;;-2.60;99.90;;;;;;4929164;28;20473;-60
2024/01/10 03:02:42;;;;;;;33.33;19.63;;;-2.60;99.90;;;;;;4944317;28;20402;-60
2024/01/10 03:05:08;;;;;;;34.13;20.67;;;-2.60;99.90;;;;;;4923832;28;20040;-61
2024/01/10 03:07:34;;;;;;;34.23;19.87;;;-2.60;99.90;;;;;;4948835;28;20074;-61
2024/01/10 03:09:59;;;;;;;29.50;19.57;;;-2.60;99.90;;;;;;4935709;28;20051;-61
2024/01/10 03:12:25;;;;;;;28.63;18.53;;;-2.60;99.90;;;;;;4928948;28;20714;-61
2024/01/10 03:14:51;;;;;;;33.00;20.43;;;-2.60;99.90;;;;;;4993565;28;20046;-58
2024/01/10 03:17:16;;;;;;;29.30;19.20;;;-2.60;99.90;;;;;;4928027;28;20150;-60
2024/01/10 03:19:43;;;;;;;33.07;21.40;;;-2.60;99.90;;;;;;4927905;28;20054;-60
2024/01/10 03:22:11;;;;;;;30.07;19.43;;;-2.60;99.90;;;;;;4936844;28;20054;-59
2024/01/10 03:24:37;;;;;;;32.47;20.27;;;-2.60;99.90;;;;;;4929649;28;20043;-61
2024/01/10 03:27:04;;;;;;;36.83;20.97;;;-2.60;99.90;;;;;;4926820;28;20545;-61
2024/01/10 03:29:29;;;;;;;34.50;20.33;;;-2.60;99.90;;;;;;4937411;28;20053;-61
2024/01/10 03:31:55;;;;;;;34.30;20.47;;;-2.60;99.90;;;;;;4927937;28;20035;-61
2024/01/10 03:34:20;;;;;;;29.43;19.20;;;-2.60;99.90;;;;;;4928818;28;20043;-61
2024/01/10 03:36:49;;;;;;;30.77;20.13;;;-2.60;99.90;;;;;;4927104;28;20039;-61
2024/01/10 03:39:15;;;;;;;30.37;19.60;;;-2.60;99.90;;;;;;4931071;28;20062;-61
2024/01/10 03:41:40;;;;;;;30.40;18.27;;;-2.60;99.90;;;;;;4929149;28;20394;-61
2024/01/10 03:44:06;;;;;;;30.47;18.57;;;-2.60;99.90;;;;;;4927608;28;20130;-61
2024/01/10 03:46:32;;;;;;;29.47;19.23;;;-2.70;99.90;;;;;;4925805;28;20538;-60
2024/01/10 03:48:57;;;;;;;29.13;17.80;;;-2.70;99.90;;;;;;4928008;28;20553;-60
2024/01/10 03:51:23;;;;;;;28.23;17.57;;;-2.70;99.90;;;;;;4953160;28;20060;-61
2024/01/10 03:53:49;;;;;;;27.83;17.60;;;-2.60;99.90;;;;;;4914779;28;20054;-60
2024/01/10 03:56:15;;;;;;;31.07;18.93;;;-2.70;99.90;;;;;;4928414;28;20167;-60
2024/01/10 03:58:41;;;;;;;26.77;16.60;;;-2.70;99.90;;;;;;4939483;29;20510;-61
2024/01/10 04:01:08;;;;;;;25.93;16.87;;;-2.70;99.90;;;;;;4932993;28;20084;-60
2024/01/10 04:03:38;;;;;;;26.87;16.80;;;-2.70;99.90;;;;;;4925017;28;20039;-61
2024/01/10 04:06:03;;;;;;;27.53;16.73;;;-2.70;99.90;;;;;;4927797;28;20047;-60
2024/01/10 04:08:29;;;;;;;26.83;16.33;;;-2.70;99.90;;;;;;4945282;28;20189;-60
2024/01/10 04:10:55;;;;;;;24.90;16.03;;;-2.70;99.90;;;;;;4932789;28;20295;-60
2024/01/10 04:13:20;;;;;;;28.67;16.40;;;-2.70;99.90;;;;;;4933055;28;20065;-59
2024/01/10 04:15:46;;;;;;;27.33;16.80;;;-2.70;99.90;;;;;;4932424;29;20046;-60
2024/01/10 04:18:12;;;;;;;24.23;14.97;;;-2.70;99.90;;;;;;4934761;28;20051;-61
2024/01/10 04:20:38;;;;;;;24.70;16.43;;;-2.70;99.90;;;;;;4927847;28;20525;-59
2024/01/10 04:23:03;;;;;;;28.10;16.63;;;-2.70;99.90;;;;;;4935290;28;20035;-61
2024/01/10 04:25:29;;;;;;;26.97;17.20;;;-2.70;99.90;;;;;;4931596;28;20488;-61
2024/01/10 04:27:55;;;;;;;26.80;17.63;;;-2.70;99.90;;;;;;4931091;28;20043;-61
2024/01/10 04:30:21;;;;;;;24.90;15.67;;;-2.70;99.90;;;;;;4930244;28;20140;-60
2024/01/10 04:32:47;;;;;;;27.33;17.13;;;-2.80;99.90;;;;;;4932021;28;20120;-60
2024/01/10 04:35:13;;;;;;;25.90;16.47;;;-2.80;99.90;;;;;;4931763;28;20100;-60
2024/01/10 04:37:38;;;;;;;27.20;16.63;;;-2.80;99.90;;;;;;4950831;28;20291;-60
2024/01/10 04:40:05;;;;;;;25.47;16.37;;;-2.80;99.90;;;;;;4936085;28;20039;-60
2024/01/10 04:42:31;;;;;;;29.57;17.57;;;-2.80;99.90;;;;;;4929496;28;20047;-61
2024/01/10 04:44:56;;;;;;;29.43;17.20;;;-2.80;99.90;;;;;;4911949;29;20065;-58
2024/01/10 04:47:22;;;;;;;25.47;15.93;;;-2.80;99.90;;;;;;4945583;28;20100;-60
2024/01/10 04:49:48;;;;;;;27.90;17.03;;;-2.80;99.90;;;;;;4933816;28;20055;-61
2024/01/10 04:52:14;;;;;;;27.33;16.50;;;-2.80;99.90;;;;;;4946838;28;20078;-61
2024/01/10 04:54:39;;;;;;;27.83;18.77;;;-2.80;99.90;;;;;;4922792;28;20537;-60
2024/01/10 04:57:05;;;;;;;25.63;16.50;;;-2.80;99.90;;;;;;4917961;28;20083;-60
2024/01/10 04:59:31;;;;;;;27.93;17.93;;;-2.80;99.90;;;;;;4929152;28;20123;-60
2024/01/10 05:01:56;;;;;;;29.13;17.97;;;-2.80;99.90;;;;;;4945997;28;20548;-61
2024/01/10 05:04:22;;;;;;;30.57;18.33;;;-2.80;99.90;;;;;;4945025;28;20031;-60
2024/01/10 05:06:48;;;;;;;27.80;18.70;;;-2.80;99.90;;;;;;4928030;28;20092;-59
2024/01/10 05:09:14;;;;;;;30.27;18.63;;;-2.80;99.90;;;;;;4913845;28;20529;-60
2024/01/10 05:11:40;;;;;;;28.30;17.83;;;-2.80;99.90;;;;;;4933365;28;20047;-61
2024/01/10 05:14:06;;;;;;;28.03;17.73;;;-2.90;99.90;;;;;;4932902;28;20044;-60
2024/01/10 05:16:35;;;;;;;25.83;17.23;;;-2.90;99.90;;;;;;4928990;28;20434;-59
2024/01/10 05:19:03;;;;;;;28.13;16.87;;;-2.90;99.90;;;;;;4914141;28;20040;-61
2024/01/10 05:21:30;;;;;;;30.03;18.40;;;-2.90;99.90;;;;;;4929947;28;20061;-60
2024/01/10 05:23:56;;;;;;;28.50;18.60;;;-2.90;99.90;;;;;;4934629;28;20055;-60
2024/01/10 05:26:22;;;;;;;32.60;18.93;;;-2.90;99.90;;;;;;4932671;28;20423;-60
2024/01/10 05:28:47;;;;;;;29.43;18.00;;;-2.90;99.90;;;;;;4928850;28;20521;-60
2024/01/10 05:31:13;;;;;;;28.87;18.33;;;-2.90;99.90;;;;;;4930598;28;20047;-60
2024/01/10 05:33:39;;;;;;;28.77;18.27;;;-2.90;99.90;;;;;;4924569;28;20130;-60
2024/01/10 05:36:05;;;;;;;31.47;18.87;;;-2.90;99.90;;;;;;4939364;28;20409;-58
2024/01/10 05:38:30;;;;;;;34.37;19.77;;;-2.90;99.90;;;;;;4928127;28;20050;-58
2024/01/10 05:40:56;;;;;;;29.87;18.60;;;-2.90;99.90;;;;;;4931873;28;20051;-60
2024/01/10 05:43:25;;;;;;;30.57;18.77;;;-2.90;99.90;;;;;;4916518;28;20042;-59
2024/01/10 05:45:54;;;;;;;30.17;18.70;;;-2.90;99.90;;;;;;4945097;23;20057;-62
2024/01/10 05:48:19;;;;;;;32.23;19.40;;;-2.90;99.90;;;;;;4896723;28;20060;-62
2024/01/10 05:50:45;;;;;;;29.27;18.83;;;-2.90;99.90;;;;;;4919309;28;20468;-61
2024/01/10 05:53:13;;;;;;;31.07;19.63;;;-2.90;99.90;;;;;;4921447;28;20383;-61
2024/01/10 05:55:39;;;;;;;29.27;17.97;;;-2.90;99.90;;;;;;4893282;28;20502;-62
2024/01/10 05:58:05;;;;;;;28.43;17.57;;;-2.90;99.90;;;;;;5010497;28;20032;-62
2024/01/10 06:00:31;;;;;;;31.23;18.57;;;-2.90;99.90;;;;;;4949469;28;20044;-62
2024/01/10 06:02:56;;;;;;;29.80;18.90;;;-2.90;99.90;;;;;;4907496;28;20037;-62
2024/01/10 06:05:22;;;;;;;31.03;19.63;;;-2.90;99.90;;;;;;4949487;28;20050;-61
2024/01/10 06:07:48;;;;;;;33.23;20.73;;;-2.90;99.90;;;;;;4921962;28;20043;-62
2024/01/10 06:10:13;;;;;;;29.57;18.50;;;-2.90;99.90;;;;;;4913604;28;20411;-62
2024/01/10 06:12:42;;;;;;;28.30;19.50;;;-2.90;99.90;;;;;;4953018;28;20467;-61
2024/01/10 06:15:08;;;;;;;29.63;19.23;;;-2.90;99.90;;;;;;4936406;28;20409;-62
2024/01/10 06:17:33;;;;;;;31.63;20.17;;;-2.90;99.90;;;;;;5011930;28;20698;-63
2024/01/10 06:20:00;;;;;;;32.67;21.00;;;-3.00;99.90;;;;;;4917600;28;20035;-62
2024/01/10 06:22:26;;;;;;;31.57;19.47;;;-3.00;99.90;;;;;;4929983;28;20693;-62
2024/01/10 06:24:54;;;;;;;31.37;19.47;;;-3.00;99.90;;;;;;4909236;28;20062;-61
2024/01/10 06:27:20;;;;;;;34.23;21.13;;;-3.00;99.90;;;;;;4949053;28;20047;-62
2024/01/10 06:29:46;;;;;;;29.17;19.10;;;-3.00;99.90;;;;;;4955096;28;20105;-62
2024/01/10 06:32:11;;;;;;;29.30;18.83;;;-3.00;99.90;;;;;;4935247;28;20075;-62
2024/01/10 06:34:37;;;;;;;31.40;19.53;;;-3.00;99.90;;;;;;4928709;28;20087;-62
2024/01/10 06:37:03;;;;;;;33.80;20.20;;;-3.00;99.90;;;;;;4928523;28;20035;-62
2024/01/10 06:39:29;;;;;;;30.30;19.57;;;-3.00;99.90;;;;;;4920044;28;20047;-61
2024/01/10 06:41:55;;;;;;;32.90;21.33;;;-3.00;99.90;;;;;;4937245;28;20036;-61
2024/01/10 06:44:20;;;;;;;33.73;20.37;;;-3.00;99.90;;;;;;4914067;28;20035;-62
2024/01/10 06:46:49;;;;;;;32.73;20.97;;;-3.00;99.90;;;;;;4933681;28;20165;-61
2024/01/10 06:49:15;;;;;;;35.03;22.77;;;-3.00;99.90;;;;;;4935687;28;20035;-61
2024/01/10 06:51:41;;;;;;;35.13;22.57;;;-3.00;99.90;;;;;;4914662;28;20036;-62
2024/01/10 06:54:06;;;;;;;36.90;22.93;;;-3.00;99.90;;;;;;4928480;28;20066;-61
2024/01/10 06:56:33;;;;;;;33.97;22.00;;;-3.00;99.90;;;;;;4915406;28;20134;-62
2024/01/10 06:59:00;;;;;;;35.10;22.17;;;-3.00;99.90;;;;;;4933574;28;20039;-62
2024/01/10 07:01:26;;;;;;;36.70;21.83;;;-3.00;99.90;;;;;;4914076;28;20085;-62
2024/01/10 07:03:55;;;;;;;34.47;21.63;;;-3.00;99.90;;;;;;4929710;28;20044;-62
2024/01/10 07:06:21;;;;;;;32.23;21.17;;;-3.00;99.90;;;;;;4945484;28;20049;-62
2024/01/10 07:08:49;;;;;;;37.80;24.63;;;-3.00;99.90;;;;;;4930563;28;20035;-62
2024/01/10 07:11:15;;;;;;;33.77;22.07;;;-3.00;99.90;;;;;;4929466;28;20046;-62
2024/01/10 07:13:41;;;;;;;34.40;21.43;;;-3.00;99.90;;;;;;4913753;28;20056;-62
2024/01/10 07:16:08;;;;;;;36.47;22.50;;;-3.00;99.90;;;;;;4925150;28;20047;-60
2024/01/10 07:18:34;;;;;;;35.37;22.23;;;-3.00;99.90;;;;;;4941992;28;20054;-62
2024/01/10 07:21:00;;;;;;;36.67;23.00;;;-3.00;99.90;;;;;;4924355;28;20043;-62
2024/01/10 07:23:26;;;;;;;37.80;23.37;;;-3.00;99.90;;;;;;4967803;28;20414;-62
2024/01/10 07:25:52;;;;;;;40.23;24.57;;;-3.00;99.90;;;;;;4944392;28;20517;-62
2024/01/10 07:28:18;;;;;;;40.80;25.23;;;-3.00;99.90;;;;;;4909205;28;20092;-62
2024/01/10 07:30:44;;;;;;;38.43;22.97;;;-3.00;99.90;;;;;;4968980;28;20040;-62
2024/01/10 07:33:13;;;;;;;36.37;23.37;;;-3.00;99.90;;;;;;4924081;28;20446;-62
2024/01/10 07:35:39;;;;;;;39.00;25.10;;;-3.00;99.90;;;;;;4935101;28;20552;-62
2024/01/10 07:38:08;;;;;;;41.13;25.10;;;-3.00;99.90;;;;;;4939995;28;20051;-62
2024/01/10 07:40:35;;;;;;;39.70;23.93;;;-3.00;99.90;;;;;;4929709;28;20126;-62
2024/01/10 07:43:00;;;;;;;41.13;24.97;;;-2.90;99.90;;;;;;4943820;28;20127;-62
2024/01/10 07:45:27;;;;;;;38.83;24.70;;;-2.90;99.90;;;;;;4962739;28;20138;-62
2024/01/10 07:47:54;;;;;;;36.83;23.50;;;-3.00;99.90;;;;;;4949228;28;20408;-62
2024/01/10 07:50:20;;;;;;;38.33;23.17;;;-3.00;99.90;;;;;;4938954;28;20414;-62
2024/01/10 07:52:46;;;;;;;39.60;23.37;;;-3.00;99.90;;;;;;4935933;28;20036;-62
2024/01/10 07:55:12;;;;;;;32.13;21.00;;;-3.00;99.90;;;;;;4933916;28;20090;-62
2024/01/10 07:57:38;;;;;;;36.90;22.60;;;-3.00;99.90;;;;;;4960322;28;20035;-62
2024/01/10 08:00:10;;;;;;;31.67;21.80;;;-2.90;99.90;;;;;;4909767;28;20517;-62
2024/01/10 08:02:40;;;;;;;33.83;22.10;;;-2.90;99.90;;;;;;4953566;28;20047;-61
2024/01/10 08:05:10;;;;;;;31.00;20.20;;;-2.90;99.90;;;;;;4963832;28;20567;-62
2024/01/10 08:07:38;;;;;;;30.40;20.03;;;-2.90;99.90;;;;;;4940698;28;20039;-61
2024/01/10 08:10:13;;;;;;;33.63;20.03;;;-2.90;99.90;;;;;;4953799;28;20114;-61
2024/01/10 08:12:39;;;;;;;30.07;18.97;;;-2.90;99.90;;;;;;4963164;28;20048;-62
2024/01/10 08:15:06;;;;;;;32.43;20.60;;;-2.90;99.90;;;;;;4954564;28;20557;-60
2024/01/10 08:17:33;;;;;;;31.53;19.30;;;-2.90;99.90;;;;;;4961659;28;20038;-62
2024/01/10 08:20:00;;;;;;;29.77;18.43;;;-2.80;99.90;;;;;;4954734;28;20101;-62
2024/01/10 08:22:26;;;;;;;29.20;18.67;;;-2.80;99.90;;;;;;4939012;28;20344;-62
2024/01/10 08:24:52;;;;;;;30.63;19.10;;;-2.80;99.90;;;;;;4937820;28;20109;-62
2024/01/10 08:27:17;;;;;;;28.37;18.33;;;-2.80;99.90;;;;;;4954589;28;20272;-61
2024/01/10 08:29:44;;;;;;;32.03;19.40;;;-2.80;99.90;;;;;;4935320;28;20035;-62
2024/01/10 08:32:10;;;;;;;32.00;19.97;;;-2.80;99.90;;;;;;4938228;28;20050;-63
2024/01/10 08:34:36;;;;;;;32.67;20.37;;;-2.80;99.90;;;;;;4963960;28;20047;-61
2024/01/10 08:37:02;;;;;;;32.80;19.47;;;-2.70;99.90;;;;;;4958540;28;20512;-62
2024/01/10 08:39:30;;;;;;;29.33;18.67;;;-2.70;99.90;;;;;;4930680;28;20466;-62
2024/01/10 08:41:57;;;;;;;29.33;18.90;;;-2.70;99.90;;;;;;4925038;28;20093;-62
2024/01/10 08:44:23;;;;;;;28.57;18.50;;;-2.70;99.90;;;;;;4940940;28;20122;-61
2024/01/10 08:46:50;;;;;;;32.50;19.33;;;-2.70;99.90;;;;;;4963144;28;20092;-60
2024/01/10 08:49:17;;;;;;;30.07;18.57;;;-2.70;99.90;;;;;;4945234;28;20043;-62
2024/01/10 08:51:44;;;;;;;33.07;18.97;;;-2.70;99.90;;;;;;4930250;28;20476;-62
2024/01/10 08:54:19;;;;;;;30.83;18.10;;;-2.60;99.90;;;;;;4948998;28;20032;-62
2024/01/10 08:56:46;;;;;;;29.83;18.87;;;-2.60;99.90;;;;;;4964677;28;21062;-62
2024/01/10 08:59:12;;;;;;;31.73;18.70;;;-2.60;99.90;;;;;;4934467;28;20032;-61
2024/01/10 09:01:41;;;;;;;26.77;16.63;;;-2.60;99.90;;;;;;4942543;28;20689;-62
2024/01/10 09:04:07;;;;;;;29.10;17.13;;;-2.50;99.90;;;;;;4963991;28;20126;-61
2024/01/10 09:06:33;;;;;;;28.50;16.73;;;-2.50;99.90;;;;;;4972395;28;20162;-62
2024/01/10 09:08:59;;;;;;;30.13;19.33;;;-2.40;99.90;;;;;;4957582;28;20043;-62
2024/01/10 09:11:25;;;;;;;27.77;16.07;;;-2.40;99.90;;;;;;4964631;28;20055;-61
2024/01/10 09:13:51;;;;;;;26.67;17.30;;;-2.40;99.90;;;;;;4961223;28;20049;-62
2024/01/10 09:16:20;;;;;;;34.03;17.87;;;-2.30;99.90;;;;;;4950923;28;20048;-62
2024/01/10 09:18:45;;;;;;;28.87;17.93;;;-2.20;99.90;;;;;;4958968;28;20576;-63
2024/01/10 09:21:12;;;;;;;31.03;17.67;;;-2.20;99.90;;;;;;4976076;28;20153;-62
2024/01/10 09:23:37;;;;;;;28.50;16.83;;;-2.10;99.90;;;;;;4946279;28;20048;-62
2024/01/10 09:26:04;;;;;;;28.07;16.57;;;-2.10;99.90;;;;;;4932263;28;20036;-61
2024/01/10 09:28:29;;;;;;;28.67;16.43;;;-2.00;99.90;;;;;;4932409;28;20066;-62
2024/01/10 09:30:58;;;;;;;26.53;15.87;;;-2.00;99.90;;;;;;4969092;28;20043;-61
2024/01/10 09:33:25;;;;;;;32.53;17.17;;;-1.90;99.90;;;;;;4938970;28;20043;-62
2024/01/10 09:35:50;;;;;;;24.57;14.87;;;-1.90;99.90;;;;;;4981375;28;20049;-62
2024/01/10 09:38:16;;;;;;;26.20;15.77;;;-1.80;99.90;;;;;;4948837;28;20050;-62
2024/01/10 09:40:45;;;;;;;31.00;16.53;;;-1.80;99.90;;;;;;4932878;28;20424;-61
2024/01/10 09:43:11;;;;;;;31.03;17.13;;;-1.70;99.90;;;;;;4943576;28;20044;-62
2024/01/10 09:45:46;;;;;;;31.03;16.77;;;-1.70;99.90;;;;;;4947304;28;20051;-62
2024/01/10 09:48:15;;;;;;;32.63;16.97;;;-1.70;99.90;;;;;;4942641;28;20043;-62
2024/01/10 09:50:41;;;;;;;36.63;17.23;;;-1.70;99.90;;;;;;4936408;28;20071;-62
2024/01/10 09:53:10;;;;;;;33.37;18.10;;;-1.60;99.90;;;;;;4921858;28;20051;-61
2024/01/10 09:55:37;;;;;;;35.70;18.43;;;-1.60;99.90;;;;;;4936847;28;20392;-63
2024/01/10 09:58:08;;;;;;;30.93;17.00;;;-1.50;99.90;;;;;;4923725;28;20733;-62
2024/01/10 10:00:42;;;;;;;30.50;14.70;;;-1.50;99.90;;;;;;4917878;28;20040;-62
2024/01/10 10:03:11;;;;;;;;;;;-1.40;99.90;;;;;;4932705;28;20075;-62
2024/01/10 10:05:37;;;;;;;29.80;14.33;;;-1.40;99.90;;;;;;4927005;28;20005;-62
2024/01/10 10:08:06;;;;;;;30.00;15.60;;;-1.40;99.90;;;;;;4940836;28;20039;-62
2024/01/10 10:10:32;;;;;;;31.57;15.17;;;-1.30;99.90;;;;;;4931722;28;20521;-62
2024/01/10 10:12:58;;;;;;;29.90;13.57;;;-1.20;99.90;;;;;;4974595;28;20054;-62
2024/01/10 10:15:30;;;;;;;29.53;14.77;;;-1.20;99.90;;;;;;4931679;28;20422;-62
2024/01/10 10:17:56;;;;;;;27.57;13.43;;;-1.10;99.90;;;;;;4962117;28;20518;-62
2024/01/10 10:20:37;;;;;;;24.50;13.00;;;-1.10;99.90;;;;;;4926760;28;20039;-62
2024/01/10 10:23:09;;;;;;;26.73;14.13;;;-1.10;99.90;;;;;;4961621;28;20043;-63
2024/01/10 10:25:42;;;;;;;26.10;12.07;;;-1.10;99.90;;;;;;4928104;28;20112;-63
2024/01/10 10:28:08;;;;;;;25.93;12.63;;;-1.00;99.90;;;;;;4927080;28;20055;-63
2024/01/10 10:30:34;;;;;;;23.57;11.80;;;-1.00;99.90;;;;;;4930681;28;20086;-62
2024/01/10 10:33:01;;;;;;;26.73;12.03;;;-0.90;99.90;;;;;;4926342;28;20085;-62
2024/01/10 10:35:30;;;;;;;23.50;11.83;;;-0.80;99.90;;;;;;4917619;28;20048;-63
2024/01/10 10:37:58;;;;;;;26.00;12.03;;;-0.80;99.90;;;;;;4924965;28;20100;-62
2024/01/10 10:40:26;;;;;;;23.60;11.60;;;-0.70;99.90;;;;;;4925983;28;20043;-63
2024/01/10 10:42:56;;;;;;;25.03;12.17;;;-0.70;99.90;;;;;;4908572;28;20256;-63
2024/01/10 10:45:25;;;;;;;20.87;11.03;;;-0.60;99.90;;;;;;4904092;28;20046;-62
2024/01/10 10:47:58;;;;;;;24.27;11.43;;;-0.60;99.90;;;;;;4928881;28;20063;-63
2024/01/10 10:50:27;;;;;;;24.50;12.37;;;-0.50;99.90;;;;;;4928392;28;20043;-63
2024/01/10 10:52:55;;;;;;;23.63;11.90;;;-0.50;99.90;;;;;;4925195;28;20042;-63
2024/01/10 10:55:23;;;;;;;23.27;11.33;;;-0.40;99.90;;;;;;4922362;28;20426;-63
2024/01/10 10:57:50;;;;;;;23.10;12.27;;;-0.40;99.90;;;;;;4913661;28;20036;-63
2024/01/10 11:00:19;;;;;;;21.53;11.07;;;-0.30;99.90;;;;;;4927174;28;20084;-62
2024/01/10 11:02:46;;;;;;;23.23;11.27;;;-0.30;99.90;;;;;;4924000;28;20067;-62
2024/01/10 11:05:12;;;;;;;23.37;11.77;;;-0.20;99.90;;;;;;4939536;28;20042;-63
2024/01/10 11:07:40;;;;;;;18.20;10.43;;;0.00;99.90;;;;;;4907914;28;20054;-63
2024/01/10 11:10:13;;;;;;;21.13;11.00;;;0.00;99.90;;;;;;4907201;28;20082;-63
2024/01/10 11:13:00;;;;;;;20.45;8.95;;;0.00;99.90;;;;;;4942503;28;20051;-63
2024/01/10 11:16:03;;;;;;;19.50;9.77;;;0.00;99.90;;;;;;4926579;28;20051;-63
2024/01/10 11:18:59;;;;;;;18.83;9.40;;;0.10;99.90;;;;;;4987349;28;20506;-63
2024/01/10 11:21:34;;;;;;;20.57;10.50;;;0.10;99.90;;;;;;4937132;28;20048;-63
2024/01/10 11:24:06;;;;;;;21.97;10.50;;;0.10;99.90;;;;;;4929384;28;20035;-63
2024/01/10 11:26:33;;;;;;;21.53;10.47;;;0.20;99.90;;;;;;4920912;28;20047;-63
2024/01/10 11:29:00;;;;;;;22.70;10.07;;;0.30;99.90;;;;;;4910966;28;20059;-63
2024/01/10 11:31:31;;;;;;;20.77;10.33;;;0.30;99.90;;;;;;4939234;28;20039;-63
2024/01/10 11:34:00;;;;;;;20.17;9.80;;;0.40;99.90;;;;;;4977924;28;20245;-63
2024/01/10 11:36:26;;;;;;;20.10;9.83;;;0.40;99.90;;;;;;4931801;28;20569;-63
2024/01/10 11:38:56;;;;;;;17.87;9.13;;;0.30;99.90;;;;;;4995289;28;20401;-63
2024/01/10 11:41:24;;;;;;;18.30;9.50;;;0.40;99.90;;;;;;4931317;28;20405;-64
2024/01/10 11:44:11;;;;;;;19.60;10.10;;;0.40;99.90;;;;;;4927376;28;20059;-63
2024/01/10 11:46:47;;;;;;;22.83;10.80;;;0.40;99.90;;;;;;4945178;22;20350;-62
2024/01/10 11:49:17;;;;;;;20.07;9.93;;;0.40;99.90;;;;;;4955350;28;20057;-62
2024/01/10 11:51:44;;;;;;;23.67;11.30;;;0.50;99.90;;;;;;4955971;28;20524;-62
2024/01/10 11:54:10;;;;;;;17.23;10.03;;;0.50;99.90;;;;;;4969285;28;20043;-64
2024/01/10 11:56:39;;;;;;;21.37;10.50;;;0.60;99.90;;;;;;4972067;28;20052;-62
2024/01/10 11:59:14;;;;;;;20.13;10.10;;;0.60;99.90;;;;;;4965181;28;20042;-62
2024/01/10 12:01:41;;;;;;;19.60;10.00;;;0.70;99.90;;;;;;4960418;28;20047;-61
2024/01/10 12:04:09;;;;;;;22.50;10.20;;;0.70;99.90;;;;;;4985712;28;20044;-61
2024/01/10 12:06:36;;;;;;;17.10;8.75;;;0.80;99.90;;;;;;4980098;28;20057;-64
2024/01/10 12:09:09;;;;;;;19.95;10.70;;;0.80;99.90;;;;;;5008935;28;20122;-61
2024/01/10 12:11:35;;;;;;;19.60;10.37;;;0.80;99.90;;;;;;4986772;28;20077;-61
2024/01/10 12:14:02;;;;;;;19.25;10.20;;;0.80;99.90;;;;;;4974662;28;20525;-61
2024/01/10 12:16:29;;;;;;;19.67;9.80;;;0.80;99.90;;;;;;4956146;28;20050;-61
2024/01/10 12:18:55;;;;;;;19.15;8.85;;;0.90;99.90;;;;;;4965183;28;20603;-62
2024/01/10 12:21:21;;;;;;;18.08;9.48;;;0.90;99.90;;;;;;4956537;28;20035;-63
2024/01/10 12:23:48;;;;;;;17.10;8.93;;;0.90;99.90;;;;;;4957610;28;20381;-63
2024/01/10 12:26:14;;;;;;;18.13;9.45;;;0.90;99.90;;;;;;4958840;28;20051;-63
2024/01/10 12:28:42;;;;;;;18.27;9.50;;;0.80;99.90;;;;;;4963711;28;20042;-63